CMA CGM Herodote — MFEP — position and weather

sailwx.info

Track history (hours):
 
Tides and Currents Weather Stations Pressure Air Temp Water Temp Dewpoint Dewpoint Depression Visibility Wind Speed Wind Dir Waves Ship Positions

CMA CGM Herodote

Last reported at 2016-May-01 13:16 UTC. Time now 2016-May-02 10:40 UTC.
Position N 49°47' W 003°25'.

Length 170 m; draft 8.9 m.

Type: Ship (hazmat cat A). MMSI: 235051085.

Date/timePositionNaut miles runAvg speedWind from/ knotsBaromVisibWave heightAir tempDewpointWater temp
2016-May-01 13:16N 49°47' W 003°25'912.6
2016-May-01 12:33N 49°52' W 003°14'1212.5
2016-May-01 11:33N 49°58' W 002°57'1312.6
2016-May-01 10:29N 50°02' W 002°37'5514.0
2016-May-01 06:32N 49°49' W 001°13'1414.8
2016-May-01 05:33N 49°44' W 000°52'1413.6
2016-May-01 04:34N 49°38' W 000°33'1313.2
2016-May-01 03:34N 49°32' W 000°15'1312.8
2016-May-01 02:33N 49°27' E 000°03'1110.8
2016-May-01 01:33N 49°26' E 000°19'9 8.8
2016-May-01 00:33N 49°28' E 000°32'9 6.6
2016-Apr-30 23:13N 49°31' E 000°45'5 8.1
2016-Apr-30 22:33N 49°26' E 000°48'5 4.1
2016-Apr-30 21:17N 49°28' E 000°56'5 0.2
2016-Apr-29 16:28N 49°26' E 000°48'6 6.0
2016-Apr-29 15:26N 49°29' E 000°40'7 7.5
2016-Apr-29 14:33N 49°29' E 000°30'1312.9
2016-Apr-29 13:33N 49°26' E 000°11'5 5.2
2016-Apr-29 12:33N 49°29' E 000°04'4 4.0
2016-Apr-29 11:33N 49°27' E 000°10'0 0.0
2016-Apr-29 10:34N 49°27' E 000°10'0 0.0
2016-Apr-29 09:33N 49°27' E 000°10'0 0.0
2016-Apr-29 08:33N 49°27' E 000°10'0 0.0
2016-Apr-29 07:34N 49°27' E 000°10'0 0.0
2016-Apr-29 06:33N 49°27' E 000°10'0 0.0
2016-Apr-29 05:33N 49°27' E 000°10'0 0.0
2016-Apr-29 04:34N 49°27' E 000°10'5 4.9
2016-Apr-29 03:33N 49°30' E 000°03'1010.3
2016-Apr-29 02:34N 49°33' W 000°12'1414.3
2016-Apr-29 01:33N 49°47' W 000°11'1514.7
2016-Apr-29 00:33N 50°02' W 000°10'1514.5
2016-Apr-28 23:33N 50°16' W 000°07'1313.0
2016-Apr-28 22:33N 50°28' E 000°02'1514.4
2016-Apr-28 21:30N 50°33' E 000°24'3415.8
2016-Apr-28 19:21N 50°51' E 001°10'1417.0
2016-Apr-28 18:33N 51°00' E 001°26'1212.3
2016-Apr-28 17:33N 51°03' E 001°45'10 9.7
2016-Apr-28 16:33N 51°03' E 002°00'7 6.3
2016-Apr-28 15:27N 51°01' E 002°11'0 0.0
2016-Apr-28 14:27N 51°01' E 002°11'0 0.0
2016-Apr-28 13:27N 51°01' E 002°11'0 0.0
2016-Apr-28 12:33N 51°01' E 002°11'0 0.0
2016-Apr-28 11:33N 51°01' E 002°11'0 0.0
2016-Apr-28 10:33N 51°01' E 002°11'0 0.0
2016-Apr-28 09:33N 51°01' E 002°11'0 0.0
2016-Apr-28 08:33N 51°01' E 002°11'0 0.0
2016-Apr-28 07:33N 51°01' E 002°11'2 1.7
2016-Apr-28 06:29N 51°02' E 002°10'1212.6
2016-Apr-28 05:34N 51°03' E 001°51'8 8.0
2016-Apr-28 04:34N 51°07' E 001°40'1414.0
2016-Apr-28 03:34N 51°18' E 001°52'1312.8
2016-Apr-28 02:33N 51°22' E 002°12'1616.0
2016-Apr-28 01:33N 51°23' E 002°38'1212.5
2016-Apr-28 00:33N 51°25' E 002°58'1413.8
2016-Apr-27 23:33N 51°24' E 003°20'1211.8
2016-Apr-27 22:34N 51°26' E 003°38'1211.7
2016-Apr-27 21:34N 51°23' E 003°56'1010.2
2016-Apr-27 20:34N 51°24' E 004°13'7 6.6
2016-Apr-27 19:33N 51°17' E 004°16'0 0.0
2016-Apr-27 18:31N 51°17' E 004°16'0 0.0
2016-Apr-27 17:28N 51°17' E 004°16'0 0.0
2016-Apr-27 16:31N 51°17' E 004°16'0 0.0
2016-Apr-27 15:31N 51°17' E 004°16'0 0.0
2016-Apr-27 14:31N 51°17' E 004°16'0 0.0
2016-Apr-27 13:28N 51°17' E 004°16'0 0.0
2016-Apr-27 12:31N 51°17' E 004°16'0 0.0
2016-Apr-27 11:28N 51°17' E 004°16'0 0.0
2016-Apr-27 10:31N 51°17' E 004°16'0 0.0
2016-Apr-27 09:31N 51°17' E 004°16'0 0.0
2016-Apr-27 08:31N 51°17' E 004°16'0 0.4
2016-Apr-27 07:34N 51°18' E 004°16'7 6.7
2016-Apr-27 06:34N 51°23' E 004°10'8 7.9
2016-Apr-27 05:34N 51°25' E 003°58'1010.0
2016-Apr-27 04:33N 51°24' E 003°42'1010.4
2016-Apr-27 03:33N 51°30' E 003°28'1111.4
2016-Apr-27 02:33N 51°39' E 003°18'8 8.0
2016-Apr-27 01:32N 51°46' E 003°12'3 2.8
2016-Apr-27 00:25N 51°48' E 003°16'1910.2
2016-Apr-26 22:33N 52°03' E 003°36'1111.1
2016-Apr-26 21:33N 52°02' E 003°54'10 9.8
2016-Apr-26 20:34N 51°58' E 004°08'1110.9
2016-Apr-26 19:33N 51°53' E 004°24'1 0.7
2016-Apr-26 18:33N 51°53' E 004°25'0 0.0
2016-Apr-26 17:33N 51°53' E 004°25'0 0.0
2016-Apr-26 16:33N 51°53' E 004°25'0 0.0
2016-Apr-26 15:33N 51°53' E 004°25'0 0.1
2016-Apr-26 14:33N 51°53' E 004°25'0 0.0
2016-Apr-26 13:33N 51°53' E 004°25'0 0.0
2016-Apr-26 12:33N 51°53' E 004°25'0 0.0
2016-Apr-26 11:33N 51°53' E 004°25'0 0.0
2016-Apr-26 10:33N 51°53' E 004°25'0 0.0
2016-Apr-26 09:33N 51°53' E 004°25'0 0.0
2016-Apr-26 08:33N 51°53' E 004°25'0 0.0
2016-Apr-26 07:33N 51°53' E 004°25'0 0.0
2016-Apr-26 06:33N 51°53' E 004°25'0 0.0
2016-Apr-26 05:33N 51°53' E 004°25'0 0.0
2016-Apr-26 04:33N 51°53' E 004°25'0 0.0
2016-Apr-26 03:33N 51°53' E 004°25'1 1.4
2016-Apr-26 02:33N 51°54' E 004°23'10 9.8
2016-Apr-26 01:33N 51°58' E 004°09'1111.3
2016-Apr-26 00:34N 51°60' E 003°51'1211.9
2016-Apr-25 23:31N 51°57' E 003°32'52 8.7
2016-Apr-25 17:34N 51°31' E 002°19'1111.3
2016-Apr-25 16:33N 51°21' E 002°10'1313.4
2016-Apr-25 15:33N 51°11' E 001°56'9 9.3
2016-Apr-25 14:34N 51°03' E 001°49'1111.1
2016-Apr-25 13:33N 51°03' E 002°07'3 3.4
2016-Apr-25 12:33N 51°01' E 002°11'0 0.0
2016-Apr-25 11:33N 51°01' E 002°11'0 0.0
2016-Apr-25 10:33N 51°01' E 002°11'0 0.0
2016-Apr-25 09:30N 51°01' E 002°11'0 0.0
2016-Apr-25 08:33N 51°01' E 002°11'0 0.3
2016-Apr-25 07:32N 51°01' E 002°11'1010.5
2016-Apr-25 06:33N 51°02' E 001°54'9 8.7
2016-Apr-25 05:33N 51°00' E 001°41'1312.5
2016-Apr-25 04:33N 50°51' E 001°28'4715.5
2016-Apr-25 01:30N 50°23' E 000°28'1616.5
2016-Apr-25 00:31N 50°19' E 000°03'1616.8
2016-Apr-24 23:33N 50°23' W 000°21'1817.8
2016-Apr-24 22:34N 50°31' W 000°45'1414.0
2016-Apr-24 21:33N 50°42' W 000°59'8 7.7
2016-Apr-24 20:34N 50°49' W 001°06'0 0.4
2016-Apr-24 19:32N 50°49' W 001°05'0 0.0
2016-Apr-24 18:32N 50°49' W 001°05'0 0.0
2016-Apr-24 17:32N 50°49' W 001°05'0 0.0
2016-Apr-24 16:32N 50°49' W 001°05'0 0.0
2016-Apr-24 15:32N 50°49' W 001°05'0 0.0
2016-Apr-24 14:32N 50°49' W 001°05'0 0.0
2016-Apr-24 13:32N 50°49' W 001°05'0 0.0
2016-Apr-24 12:32N 50°49' W 001°05'1 1.0
2016-Apr-24 11:34N 50°48' W 001°07'5 5.5
2016-Apr-24 10:33N 50°44' W 001°02'9 9.0
2016-Apr-24 09:34N 50°35' W 000°59'7815.3
2016-Apr-24 04:29N 49°51' W 002°39'1516.6
2016-Apr-24 03:33N 49°45' W 003°02'1616.0
2016-Apr-24 02:34N 49°37' W 003°23'8116.0
2016-Apr-23 21:29N 48°58' W 005°12'1212.9
2016-Apr-23 20:33N 48°52' W 005°27'59015.9
2016-Apr-22 07:20N 39°32' W 009°51'1317.1
2016-Apr-22 06:33N 39°19' W 009°51'1716.6
2016-Apr-22 05:34N 39°02' W 009°52'1616.3
2016-Apr-22 04:34N 38°46' W 009°51'1616.4
2016-Apr-22 03:34N 38°30' W 009°50'1616.2
2016-Apr-22 02:33N 38°14' W 009°51'1716.6
2016-Apr-22 01:32N 37°57' W 009°52'1716.7
2016-Apr-22 00:32N 37°40' W 009°53'  
Track history (hours):
 
Tides and Currents Weather Stations Pressure Air Temp Water Temp Dewpoint Dewpoint Depression Visibility Wind Speed Wind Dir Waves Ship Positions

CMA CGM Herodote

Last reported at 2016-May-01 13:16 UTC. Time now 2016-May-02 10:40 UTC.
Position N 49°47' W 003°25'.

Length 170 m; draft 8.9 m.

Type: Ship (hazmat cat A). MMSI: 235051085.

Date/timePositionNaut miles runAvg speedWind from/ knotsBaromVisibWave heightAir tempDewpointWater temp
2016-May-01 13:16N 49°47' W 003°25'912.6
2016-May-01 12:33N 49°52' W 003°14'1212.5
2016-May-01 11:33N 49°58' W 002°57'1312.6
2016-May-01 10:29N 50°02' W 002°37'5514.0
2016-May-01 06:32N 49°49' W 001°13'1414.8
2016-May-01 05:33N 49°44' W 000°52'1413.6
2016-May-01 04:34N 49°38' W 000°33'1313.2
2016-May-01 03:34N 49°32' W 000°15'1312.8
2016-May-01 02:33N 49°27' E 000°03'1110.8
2016-May-01 01:33N 49°26' E 000°19'9 8.8
2016-May-01 00:33N 49°28' E 000°32'9 6.6
2016-Apr-30 23:13N 49°31' E 000°45'5 8.1
2016-Apr-30 22:33N 49°26' E 000°48'5 4.1
2016-Apr-30 21:17N 49°28' E 000°56'5 0.2
2016-Apr-29 16:28N 49°26' E 000°48'6 6.0
2016-Apr-29 15:26N 49°29' E 000°40'7 7.5
2016-Apr-29 14:33N 49°29' E 000°30'1312.9
2016-Apr-29 13:33N 49°26' E 000°11'5 5.2
2016-Apr-29 12:33N 49°29' E 000°04'4 4.0
2016-Apr-29 11:33N 49°27' E 000°10'0 0.0
2016-Apr-29 10:34N 49°27' E 000°10'0 0.0
2016-Apr-29 09:33N 49°27' E 000°10'0 0.0
2016-Apr-29 08:33N 49°27' E 000°10'0 0.0
2016-Apr-29 07:34N 49°27' E 000°10'0 0.0
2016-Apr-29 06:33N 49°27' E 000°10'0 0.0
2016-Apr-29 05:33N 49°27' E 000°10'0 0.0
2016-Apr-29 04:34N 49°27' E 000°10'5 4.9
2016-Apr-29 03:33N 49°30' E 000°03'1010.3
2016-Apr-29 02:34N 49°33' W 000°12'1414.3
2016-Apr-29 01:33N 49°47' W 000°11'1514.7
2016-Apr-29 00:33N 50°02' W 000°10'1514.5
2016-Apr-28 23:33N 50°16' W 000°07'1313.0
2016-Apr-28 22:33N 50°28' E 000°02'1514.4
2016-Apr-28 21:30N 50°33' E 000°24'3415.8
2016-Apr-28 19:21N 50°51' E 001°10'1417.0
2016-Apr-28 18:33N 51°00' E 001°26'1212.3
2016-Apr-28 17:33N 51°03' E 001°45'10 9.7
2016-Apr-28 16:33N 51°03' E 002°00'7 6.3
2016-Apr-28 15:27N 51°01' E 002°11'0 0.0
2016-Apr-28 14:27N 51°01' E 002°11'0 0.0
2016-Apr-28 13:27N 51°01' E 002°11'0 0.0
2016-Apr-28 12:33N 51°01' E 002°11'0 0.0
2016-Apr-28 11:33N 51°01' E 002°11'0 0.0
2016-Apr-28 10:33N 51°01' E 002°11'0 0.0
2016-Apr-28 09:33N 51°01' E 002°11'0 0.0
2016-Apr-28 08:33N 51°01' E 002°11'0 0.0
2016-Apr-28 07:33N 51°01' E 002°11'2 1.7
2016-Apr-28 06:29N 51°02' E 002°10'1212.6
2016-Apr-28 05:34N 51°03' E 001°51'8 8.0
2016-Apr-28 04:34N 51°07' E 001°40'1414.0
2016-Apr-28 03:34N 51°18' E 001°52'1312.8
2016-Apr-28 02:33N 51°22' E 002°12'1616.0
2016-Apr-28 01:33N 51°23' E 002°38'1212.5
2016-Apr-28 00:33N 51°25' E 002°58'1413.8
2016-Apr-27 23:33N 51°24' E 003°20'1211.8
2016-Apr-27 22:34N 51°26' E 003°38'1211.7
2016-Apr-27 21:34N 51°23' E 003°56'1010.2
2016-Apr-27 20:34N 51°24' E 004°13'7 6.6
2016-Apr-27 19:33N 51°17' E 004°16'0 0.0
2016-Apr-27 18:31N 51°17' E 004°16'0 0.0
2016-Apr-27 17:28N 51°17' E 004°16'0 0.0
2016-Apr-27 16:31N 51°17' E 004°16'0 0.0
2016-Apr-27 15:31N 51°17' E 004°16'0 0.0
2016-Apr-27 14:31N 51°17' E 004°16'0 0.0
2016-Apr-27 13:28N 51°17' E 004°16'0 0.0
2016-Apr-27 12:31N 51°17' E 004°16'0 0.0
2016-Apr-27 11:28N 51°17' E 004°16'0 0.0
2016-Apr-27 10:31N 51°17' E 004°16'0 0.0
2016-Apr-27 09:31N 51°17' E 004°16'0 0.0
2016-Apr-27 08:31N 51°17' E 004°16'0 0.4
2016-Apr-27 07:34N 51°18' E 004°16'7 6.7
2016-Apr-27 06:34N 51°23' E 004°10'8 7.9
2016-Apr-27 05:34N 51°25' E 003°58'1010.0
2016-Apr-27 04:33N 51°24' E 003°42'1010.4
2016-Apr-27 03:33N 51°30' E 003°28'1111.4
2016-Apr-27 02:33N 51°39' E 003°18'8 8.0
2016-Apr-27 01:32N 51°46' E 003°12'3 2.8
2016-Apr-27 00:25N 51°48' E 003°16'1910.2
2016-Apr-26 22:33N 52°03' E 003°36'1111.1
2016-Apr-26 21:33N 52°02' E 003°54'10 9.8
2016-Apr-26 20:34N 51°58' E 004°08'1110.9
2016-Apr-26 19:33N 51°53' E 004°24'1 0.7
2016-Apr-26 18:33N 51°53' E 004°25'0 0.0
2016-Apr-26 17:33N 51°53' E 004°25'0 0.0
2016-Apr-26 16:33N 51°53' E 004°25'0 0.0
2016-Apr-26 15:33N 51°53' E 004°25'0 0.1
2016-Apr-26 14:33N 51°53' E 004°25'0 0.0
2016-Apr-26 13:33N 51°53' E 004°25'0 0.0
2016-Apr-26 12:33N 51°53' E 004°25'0 0.0
2016-Apr-26 11:33N 51°53' E 004°25'0 0.0
2016-Apr-26 10:33N 51°53' E 004°25'0 0.0
2016-Apr-26 09:33N 51°53' E 004°25'0 0.0
2016-Apr-26 08:33N 51°53' E 004°25'0 0.0
2016-Apr-26 07:33N 51°53' E 004°25'0 0.0
2016-Apr-26 06:33N 51°53' E 004°25'0 0.0
2016-Apr-26 05:33N 51°53' E 004°25'0 0.0
2016-Apr-26 04:33N 51°53' E 004°25'0 0.0
2016-Apr-26 03:33N 51°53' E 004°25'1 1.4
2016-Apr-26 02:33N 51°54' E 004°23'10 9.8
2016-Apr-26 01:33N 51°58' E 004°09'1111.3
2016-Apr-26 00:34N 51°60' E 003°51'1211.9
2016-Apr-25 23:31N 51°57' E 003°32'52 8.7
2016-Apr-25 17:34N 51°31' E 002°19'1111.3
2016-Apr-25 16:33N 51°21' E 002°10'1313.4
2016-Apr-25 15:33N 51°11' E 001°56'9 9.3
2016-Apr-25 14:34N 51°03' E 001°49'1111.1
2016-Apr-25 13:33N 51°03' E 002°07'3 3.4
2016-Apr-25 12:33N 51°01' E 002°11'0 0.0
2016-Apr-25 11:33N 51°01' E 002°11'0 0.0
2016-Apr-25 10:33N 51°01' E 002°11'0 0.0
2016-Apr-25 09:30N 51°01' E 002°11'0 0.0
2016-Apr-25 08:33N 51°01' E 002°11'0 0.3
2016-Apr-25 07:32N 51°01' E 002°11'1010.5
2016-Apr-25 06:33N 51°02' E 001°54'9 8.7
2016-Apr-25 05:33N 51°00' E 001°41'1312.5
2016-Apr-25 04:33N 50°51' E 001°28'4715.5
2016-Apr-25 01:30N 50°23' E 000°28'1616.5
2016-Apr-25 00:31N 50°19' E 000°03'1616.8
2016-Apr-24 23:33N 50°23' W 000°21'1817.8
2016-Apr-24 22:34N 50°31' W 000°45'1414.0
2016-Apr-24 21:33N 50°42' W 000°59'8 7.7
2016-Apr-24 20:34N 50°49' W 001°06'0 0.4
2016-Apr-24 19:32N 50°49' W 001°05'0 0.0
2016-Apr-24 18:32N 50°49' W 001°05'0 0.0
2016-Apr-24 17:32N 50°49' W 001°05'0 0.0
2016-Apr-24 16:32N 50°49' W 001°05'0 0.0
2016-Apr-24 15:32N 50°49' W 001°05'0 0.0
2016-Apr-24 14:32N 50°49' W 001°05'0 0.0
2016-Apr-24 13:32N 50°49' W 001°05'0 0.0
2016-Apr-24 12:32N 50°49' W 001°05'1 1.0
2016-Apr-24 11:34N 50°48' W 001°07'5 5.5
2016-Apr-24 10:33N 50°44' W 001°02'9 9.0
2016-Apr-24 09:34N 50°35' W 000°59'7815.3
2016-Apr-24 04:29N 49°51' W 002°39'1516.6
2016-Apr-24 03:33N 49°45' W 003°02'1616.0
2016-Apr-24 02:34N 49°37' W 003°23'8116.0
2016-Apr-23 21:29N 48°58' W 005°12'1212.9
2016-Apr-23 20:33N 48°52' W 005°27'59015.9
2016-Apr-22 07:20N 39°32' W 009°51'1317.1
2016-Apr-22 06:33N 39°19' W 009°51'1716.6
2016-Apr-22 05:34N 39°02' W 009°52'1616.3
2016-Apr-22 04:34N 38°46' W 009°51'1616.4
2016-Apr-22 03:34N 38°30' W 009°50'1616.2
2016-Apr-22 02:33N 38°14' W 009°51'1716.6
2016-Apr-22 01:32N 37°57' W 009°52'1716.7
2016-Apr-22 00:32N 37°40' W 009°53'  

Dump ship's entire track history